sensor_id;sensor_type;location;lat;lon;timestamp;pressure;altitude;pressure_sealevel;temperature;humidity
62800;BME280;48842;51.046;13.796;2022-09-09T00:01:52;99969.13;;;19.32;nan
62800;BME280;48842;51.046;13.796;2022-09-09T00:04:29;99968.22;;;19.31;nan
62800;BME280;48842;51.046;13.796;2022-09-09T00:07:13;99963.91;;;19.29;nan
62800;BME280;48842;51.046;13.796;2022-09-09T00:09:55;99967.56;;;19.26;nan
62800;BME280;48842;51.046;13.796;2022-09-09T00:12:32;99963.28;;;19.22;nan
62800;BME280;48842;51.046;13.796;2022-09-09T00:15:03;99965.09;;;19.20;nan
62800;BME280;48842;51.046;13.796;2022-09-09T00:20:16;99963.72;;;19.10;nan
62800;BME280;48842;51.046;13.796;2022-09-09T00:22:57;99967.38;;;19.07;nan
62800;BME280;48842;51.046;13.796;2022-09-09T00:25:29;99961.25;;;19.05;nan
62800;BME280;48842;51.046;13.796;2022-09-09T00:27:59;99955.03;;;19.06;nan
62800;BME280;48842;51.046;13.796;2022-09-09T00:30:32;99956.13;;;19.00;nan
62800;BME280;48842;51.046;13.796;2022-09-09T00:33:10;99957.03;;;18.99;nan
62800;BME280;48842;51.046;13.796;2022-09-09T00:35:39;99950.88;;;18.99;nan
62800;BME280;48842;51.046;13.796;2022-09-09T00:38:28;99959.06;;;18.93;nan
62800;BME280;48842;51.046;13.796;2022-09-09T00:41:09;99965.28;;;18.92;nan
62800;BME280;48842;51.046;13.796;2022-09-09T00:43:39;99961.88;;;18.88;nan
62800;BME280;48842;51.046;13.796;2022-09-09T00:46:32;99962.06;;;18.82;nan
62800;BME280;48842;51.046;13.796;2022-09-09T00:54:32;99959.75;;;18.73;nan
62800;BME280;48842;51.046;13.796;2022-09-09T00:57:23;99968.63;;;18.72;nan
62800;BME280;48842;51.046;13.796;2022-09-09T01:02:28;99966.19;;;18.65;nan
62800;BME280;48842;51.046;13.796;2022-09-09T01:04:54;99976.00;;;18.63;nan
62800;BME280;48842;51.046;13.796;2022-09-09T01:07:20;99973.47;;;18.60;nan
62800;BME280;48842;51.046;13.796;2022-09-09T01:09:52;99979.78;;;18.56;nan
62800;BME280;48842;51.046;13.796;2022-09-09T01:12:46;99975.41;;;18.55;nan
62800;BME280;48842;51.046;13.796;2022-09-09T01:15:18;99977.16;;;18.56;nan
62800;BME280;48842;51.046;13.796;2022-09-09T01:18:05;99973.66;;;18.54;nan
62800;BME280;48842;51.046;13.796;2022-09-09T01:20:47;99976.31;;;18.54;nan
62800;BME280;48842;51.046;13.796;2022-09-09T01:28:43;99979.41;;;18.42;nan
62800;BME280;48842;51.046;13.796;2022-09-09T01:31:37;99960.94;;;18.39;nan
62800;BME280;48842;51.046;13.796;2022-09-09T01:34:12;99968.06;;;18.37;nan
62800;BME280;48842;51.046;13.796;2022-09-09T01:36:43;99968.91;;;18.39;nan
62800;BME280;48842;51.046;13.796;2022-09-09T01:39:10;99970.63;;;18.40;nan
62800;BME280;48842;51.046;13.796;2022-09-09T01:41:36;99963.53;;;18.40;nan
62800;BME280;48842;51.046;13.796;2022-09-09T01:44:02;99968.91;;;18.39;nan
62800;BME280;48842;51.046;13.796;2022-09-09T01:46:28;99968.13;;;18.35;nan
62800;BME280;48842;51.046;13.796;2022-09-09T01:48:55;99963.81;;;18.33;nan
62800;BME280;48842;51.046;13.796;2022-09-09T01:51:21;99969.06;;;18.34;nan
62800;BME280;48842;51.046;13.796;2022-09-09T01:53:47;99967.28;;;18.35;nan
62800;BME280;48842;51.046;13.796;2022-09-09T02:04:44;99956.00;;;18.28;nan
62800;BME280;48842;51.046;13.796;2022-09-09T02:07:43;99956.09;;;18.25;nan
62800;BME280;48842;51.046;13.796;2022-09-09T02:10:25;99955.34;;;18.21;nan
62800;BME280;48842;51.046;13.796;2022-09-09T02:13:02;99963.41;;;18.18;nan
62800;BME280;48842;51.046;13.796;2022-09-09T02:15:39;99958.91;;;18.20;nan
62800;BME280;48842;51.046;13.796;2022-09-09T02:18:08;99955.47;;;18.18;nan
62800;BME280;48842;51.046;13.796;2022-09-09T02:20:37;99962.47;;;18.19;nan
62800;BME280;48842;51.046;13.796;2022-09-09T02:23:04;99966.97;;;18.17;nan
62800;BME280;48842;51.046;13.796;2022-09-09T02:25:30;99965.06;;;18.21;nan
62800;BME280;48842;51.046;13.796;2022-09-09T02:27:56;99961.47;;;18.23;nan
62800;BME280;48842;51.046;13.796;2022-09-09T02:30:24;99963.47;;;18.17;nan
62800;BME280;48842;51.046;13.796;2022-09-09T02:32:52;99959.34;;;18.08;nan
62800;BME280;48842;51.046;13.796;2022-09-09T02:35:23;99960.94;;;18.12;nan
62800;BME280;48842;51.046;13.796;2022-09-09T02:37:52;99958.25;;;18.13;nan
62800;BME280;48842;51.046;13.796;2022-09-09T02:40:18;99961.84;;;18.12;nan
62800;BME280;48842;51.046;13.796;2022-09-09T02:42:47;99961.06;;;18.09;nan
62800;BME280;48842;51.046;13.796;2022-09-09T02:45:16;99968.31;;;18.04;nan
62800;BME280;48842;51.046;13.796;2022-09-09T02:48:02;99959.53;;;18.02;nan
62800;BME280;48842;51.046;13.796;2022-09-09T02:50:33;99963.06;;;18.02;nan
62800;BME280;48842;51.046;13.796;2022-09-09T02:56:04;99957.88;;;17.99;nan
62800;BME280;48842;51.046;13.796;2022-09-09T02:58:30;99964.19;;;17.95;nan
62800;BME280;48842;51.046;13.796;2022-09-09T03:00:57;99965.91;;;17.96;nan
62800;BME280;48842;51.046;13.796;2022-09-09T03:03:23;99965.88;;;17.98;nan
62800;BME280;48842;51.046;13.796;2022-09-09T03:05:48;99975.41;;;18.02;nan
62800;BME280;48842;51.046;13.796;2022-09-09T03:08:15;99965.75;;;18.01;nan
62800;BME280;48842;51.046;13.796;2022-09-09T03:10:40;99971.97;;;18.00;nan
62800;BME280;48842;51.046;13.796;2022-09-09T03:13:05;99970.13;;;18.02;nan
62800;BME280;48842;51.046;13.796;2022-09-09T03:15:32;99971.06;;;18.01;nan
62800;BME280;48842;51.046;13.796;2022-09-09T03:17:58;99961.38;;;18.00;nan
62800;BME280;48842;51.046;13.796;2022-09-09T03:20:25;99974.50;;;18.03;nan
62800;BME280;48842;51.046;13.796;2022-09-09T03:22:51;99970.06;;;18.05;nan
62800;BME280;48842;51.046;13.796;2022-09-09T03:25:17;99972.97;;;17.95;nan
62800;BME280;48842;51.046;13.796;2022-09-09T03:27:43;99973.13;;;17.91;nan
62800;BME280;48842;51.046;13.796;2022-09-09T03:30:08;99970.50;;;17.89;nan
62800;BME280;48842;51.046;13.796;2022-09-09T03:32:34;99979.34;;;17.88;nan
62800;BME280;48842;51.046;13.796;2022-09-09T03:34:59;99976.66;;;17.91;nan
62800;BME280;48842;51.046;13.796;2022-09-09T03:37:24;99974.78;;;17.95;nan
62800;BME280;48842;51.046;13.796;2022-09-09T03:39:50;99983.53;;;17.97;nan
62800;BME280;48842;51.046;13.796;2022-09-09T03:42:15;99977.47;;;17.93;nan
62800;BME280;48842;51.046;13.796;2022-09-09T03:44:45;99973.19;;;17.88;nan
62800;BME280;48842;51.046;13.796;2022-09-09T03:47:18;99963.56;;;17.85;nan
62800;BME280;48842;51.046;13.796;2022-09-09T03:49:43;99960.06;;;17.85;nan
62800;BME280;48842;51.046;13.796;2022-09-09T03:52:09;99965.47;;;17.82;nan
62800;BME280;48842;51.046;13.796;2022-09-09T03:54:34;99969.06;;;17.79;nan
62800;BME280;48842;51.046;13.796;2022-09-09T03:57:00;99969.06;;;17.79;nan
62800;BME280;48842;51.046;13.796;2022-09-09T03:59:25;99969.91;;;17.79;nan
62800;BME280;48842;51.046;13.796;2022-09-09T04:01:51;99973.50;;;17.78;nan
62800;BME280;48842;51.046;13.796;2022-09-09T04:04:16;99970.88;;;17.78;nan
62800;BME280;48842;51.046;13.796;2022-09-09T04:06:41;99972.63;;;17.78;nan
62800;BME280;48842;51.046;13.796;2022-09-09T04:09:07;99963.78;;;17.79;nan
62800;BME280;48842;51.046;13.796;2022-09-09T04:11:32;99972.63;;;17.78;nan
62800;BME280;48842;51.046;13.796;2022-09-09T04:13:58;99974.38;;;17.79;nan
62800;BME280;48842;51.046;13.796;2022-09-09T04:16:23;99979.78;;;17.76;nan
62800;BME280;48842;51.046;13.796;2022-09-09T04:18:48;99978.03;;;17.75;nan
62800;BME280;48842;51.046;13.796;2022-09-09T04:21:14;99974.47;;;17.76;nan
62800;BME280;48842;51.046;13.796;2022-09-09T04:23:41;99977.91;;;17.78;nan
62800;BME280;48842;51.046;13.796;2022-09-09T04:26:06;99977.91;;;17.78;nan
62800;BME280;48842;51.046;13.796;2022-09-09T04:28:33;99982.31;;;17.79;nan
62800;BME280;48842;51.046;13.796;2022-09-09T04:31:14;99978.81;;;17.78;nan
62800;BME280;48842;51.046;13.796;2022-09-09T04:33:40;99980.47;;;17.81;nan
62800;BME280;48842;51.046;13.796;2022-09-09T04:36:06;99978.75;;;17.80;nan
62800;BME280;48842;51.046;13.796;2022-09-09T04:38:31;99980.53;;;17.79;nan
62800;BME280;48842;51.046;13.796;2022-09-09T04:40:56;99979.66;;;17.79;nan
62800;BME280;48842;51.046;13.796;2022-09-09T04:43:22;99984.97;;;17.79;nan
62800;BME280;48842;51.046;13.796;2022-09-09T04:45:49;99980.53;;;17.79;nan
62800;BME280;48842;51.046;13.796;2022-09-09T04:48:14;99984.88;;;17.82;nan
62800;BME280;48842;51.046;13.796;2022-09-09T04:50:40;99983.91;;;17.85;nan
62800;BME280;48842;51.046;13.796;2022-09-09T04:53:06;99982.06;;;17.87;nan
62800;BME280;48842;51.046;13.796;2022-09-09T04:55:31;99989.97;;;17.88;nan
62800;BME280;48842;51.046;13.796;2022-09-09T04:57:57;99986.41;;;17.89;nan
62800;BME280;48842;51.046;13.796;2022-09-09T05:00:23;99977.66;;;17.87;nan
62800;BME280;48842;51.046;13.796;2022-09-09T05:02:49;99979.56;;;17.82;nan
62800;BME280;48842;51.046;13.796;2022-09-09T05:05:14;99987.56;;;17.80;nan
62800;BME280;48842;51.046;13.796;2022-09-09T05:07:39;99987.50;;;17.82;nan
62800;BME280;48842;51.046;13.796;2022-09-09T05:10:05;99985.72;;;17.83;nan
62800;BME280;48842;51.046;13.796;2022-09-09T05:12:31;99984.75;;;17.85;nan
62800;BME280;48842;51.046;13.796;2022-09-09T05:14:56;99998.78;;;17.90;nan
62800;BME280;48842;51.046;13.796;2022-09-09T05:17:22;99989.84;;;17.93;nan
62800;BME280;48842;51.046;13.796;2022-09-09T05:19:48;99990.72;;;17.93;nan
62800;BME280;48842;51.046;13.796;2022-09-09T05:22:18;99988.94;;;17.94;nan
62800;BME280;48842;51.046;13.796;2022-09-09T05:24:43;99994.91;;;18.01;nan
62800;BME280;48842;51.046;13.796;2022-09-09T05:27:09;99994.59;;;18.10;nan
62800;BME280;48842;51.046;13.796;2022-09-09T05:29:37;99992.69;;;18.15;nan
62800;BME280;48842;51.046;13.796;2022-09-09T05:32:03;99989.94;;;18.18;nan
62800;BME280;48842;51.046;13.796;2022-09-09T05:34:28;99988.88;;;18.22;nan
62800;BME280;48842;51.046;13.796;2022-09-09T05:36:54;99989.72;;;18.24;nan
62800;BME280;48842;51.046;13.796;2022-09-09T05:39:19;100001.97;;;18.28;nan
62800;BME280;48842;51.046;13.796;2022-09-09T05:41:44;100007.16;;;18.31;nan
62800;BME280;48842;51.046;13.796;2022-09-09T05:44:10;100008.69;;;18.39;nan
62800;BME280;48842;51.046;13.796;2022-09-09T05:46:35;100012.97;;;18.43;nan
62800;BME280;48842;51.046;13.796;2022-09-09T05:49:02;100012.75;;;18.49;nan
62800;BME280;48842;51.046;13.796;2022-09-09T05:51:29;100011.69;;;18.55;nan
62800;BME280;48842;51.046;13.796;2022-09-09T05:53:57;100017.72;;;18.58;nan
62800;BME280;48842;51.046;13.796;2022-09-09T05:56:26;100017.53;;;18.64;nan
62800;BME280;48842;51.046;13.796;2022-09-09T05:58:53;100020.03;;;18.69;nan
62800;BME280;48842;51.046;13.796;2022-09-09T06:01:26;100020.78;;;18.73;nan
62800;BME280;48842;51.046;13.796;2022-09-09T06:03:52;100025.94;;;18.77;nan
62800;BME280;48842;51.046;13.796;2022-09-09T06:06:26;100029.34;;;18.81;nan
62800;BME280;48842;51.046;13.796;2022-09-09T06:08:55;100020.56;;;18.79;nan
62800;BME280;48842;51.046;13.796;2022-09-09T06:11:25;100023.94;;;18.84;nan
62800;BME280;48842;51.046;13.796;2022-09-09T06:13:51;100021.16;;;18.89;nan
62800;BME280;48842;51.046;13.796;2022-09-09T06:16:20;100035.41;;;18.84;nan
62800;BME280;48842;51.046;13.796;2022-09-09T06:18:48;100031.69;;;18.90;nan
62800;BME280;48842;51.046;13.796;2022-09-09T06:21:19;100023.56;;;18.95;nan
62800;BME280;48842;51.046;13.796;2022-09-09T06:23:45;100020.06;;;18.94;nan
62800;BME280;48842;51.046;13.796;2022-09-09T06:26:13;100017.22;;;18.99;nan
62800;BME280;48842;51.046;13.796;2022-09-09T06:28:39;100019.72;;;19.04;nan
62800;BME280;48842;51.046;13.796;2022-09-09T06:31:10;100016.94;;;19.07;nan
62800;BME280;48842;51.046;13.796;2022-09-09T06:33:37;100017.53;;;19.15;nan
62800;BME280;48842;51.046;13.796;2022-09-09T06:36:15;100019.97;;;19.21;nan
62800;BME280;48842;51.046;13.796;2022-09-09T06:38:42;100017.13;;;19.26;nan
62800;BME280;48842;51.046;13.796;2022-09-09T06:41:09;100013.50;;;19.28;nan
62800;BME280;48842;51.046;13.796;2022-09-09T06:43:34;100019.66;;;19.30;nan
62800;BME280;48842;51.046;13.796;2022-09-09T06:46:14;100019.66;;;19.29;nan
62800;BME280;48842;51.046;13.796;2022-09-09T06:48:41;100020.44;;;19.32;nan
62800;BME280;48842;51.046;13.796;2022-09-09T06:51:17;100016.81;;;19.35;nan
62800;BME280;48842;51.046;13.796;2022-09-09T06:53:44;100016.75;;;19.36;nan
62800;BME280;48842;51.046;13.796;2022-09-09T06:58:36;100019.97;;;19.21;nan
62800;BME280;48842;51.046;13.796;2022-09-09T07:01:06;100023.50;;;19.22;nan
62800;BME280;48842;51.046;13.796;2022-09-09T07:03:31;100011.56;;;19.33;nan
62800;BME280;48842;51.046;13.796;2022-09-09T07:05:58;100015.47;;;19.47;nan
62800;BME280;48842;51.046;13.796;2022-09-09T07:08:24;100015.88;;;19.60;nan
62800;BME280;48842;51.046;13.796;2022-09-09T07:10:50;100010.72;;;19.55;nan
62800;BME280;48842;51.046;13.796;2022-09-09T07:13:19;100021.34;;;19.55;nan
62800;BME280;48842;51.046;13.796;2022-09-09T07:15:45;100020.19;;;19.62;nan
62800;BME280;48842;51.046;13.796;2022-09-09T07:18:11;100018.41;;;19.63;nan
62800;BME280;48842;51.046;13.796;2022-09-09T07:20:36;100013.81;;;19.66;nan
62800;BME280;48842;51.046;13.796;2022-09-09T07:23:02;100006.56;;;19.71;nan
62800;BME280;48842;51.046;13.796;2022-09-09T07:25:27;100011.88;;;19.71;nan
62800;BME280;48842;51.046;13.796;2022-09-09T07:27:54;100013.56;;;19.73;nan
62800;BME280;48842;51.046;13.796;2022-09-09T07:30:19;100016.94;;;19.78;nan
62800;BME280;48842;51.046;13.796;2022-09-09T07:32:45;100016.78;;;19.82;nan
62800;BME280;48842;51.046;13.796;2022-09-09T07:35:10;100013.94;;;19.87;nan
62800;BME280;48842;51.046;13.796;2022-09-09T07:37:38;100016.41;;;19.92;nan
62800;BME280;48842;51.046;13.796;2022-09-09T07:40:04;100011.84;;;19.95;nan
62800;BME280;48842;51.046;13.796;2022-09-09T07:42:30;100009.84;;;20.00;nan
62800;BME280;48842;51.046;13.796;2022-09-09T07:44:55;100014.25;;;20.01;nan
62800;BME280;48842;51.046;13.796;2022-09-09T07:47:20;100010.78;;;19.99;nan
62800;BME280;48842;51.046;13.796;2022-09-09T07:49:46;100012.41;;;20.03;nan
62800;BME280;48842;51.046;13.796;2022-09-09T07:52:12;100014.00;;;20.08;nan
62800;BME280;48842;51.046;13.796;2022-09-09T07:54:37;100016.50;;;20.12;nan
62800;BME280;48842;51.046;13.796;2022-09-09T07:57:02;100015.34;;;20.18;nan
62800;BME280;48842;51.046;13.796;2022-09-09T07:59:29;100015.97;;;20.25;nan
62800;BME280;48842;51.046;13.796;2022-09-09T08:01:55;100012.97;;;20.32;nan
62800;BME280;48842;51.046;13.796;2022-09-09T08:04:21;100018.06;;;20.38;nan
62800;BME280;48842;51.046;13.796;2022-09-09T08:06:53;100010.59;;;20.47;nan
62800;BME280;48842;51.046;13.796;2022-09-09T08:09:19;100011.94;;;20.57;nan
62800;BME280;48842;51.046;13.796;2022-09-09T08:11:45;100024.94;;;20.65;nan
62800;BME280;48842;51.046;13.796;2022-09-09T08:14:11;100021.97;;;20.72;nan
62800;BME280;48842;51.046;13.796;2022-09-09T08:16:39;100022.56;;;20.79;nan
62800;BME280;48842;51.046;13.796;2022-09-09T08:19:05;100024.00;;;20.86;nan
62800;BME280;48842;51.046;13.796;2022-09-09T08:21:33;100024.63;;;20.93;nan
62800;BME280;48842;51.046;13.796;2022-09-09T08:24:00;100029.66;;;20.99;nan
62800;BME280;48842;51.046;13.796;2022-09-09T08:26:28;100031.28;;;21.03;nan
62800;BME280;48842;51.046;13.796;2022-09-09T08:28:56;100030.13;;;21.09;nan
62800;BME280;48842;51.046;13.796;2022-09-09T08:31:24;100030.00;;;21.12;nan
62800;BME280;48842;51.046;13.796;2022-09-09T08:33:50;100030.53;;;21.20;nan
62800;BME280;48842;51.046;13.796;2022-09-09T08:36:20;100032.91;;;21.26;nan
62800;BME280;48842;51.046;13.796;2022-09-09T08:38:48;100033.53;;;21.32;nan
62800;BME280;48842;51.046;13.796;2022-09-09T08:44:01;100035.94;;;21.38;nan
62800;BME280;48842;51.046;13.796;2022-09-09T08:49:15;100043.81;;;21.41;nan
62800;BME280;48842;51.046;13.796;2022-09-09T08:51:44;100040.09;;;21.43;nan
62800;BME280;48842;51.046;13.796;2022-09-09T08:54:09;100043.50;;;21.47;nan
62800;BME280;48842;51.046;13.796;2022-09-09T08:56:35;100038.84;;;21.52;nan
62800;BME280;48842;51.046;13.796;2022-09-09T08:59:02;100034.19;;;21.57;nan
62800;BME280;48842;51.046;13.796;2022-09-09T09:04:07;100039.81;;;21.70;nan
62800;BME280;48842;51.046;13.796;2022-09-09T09:09:37;100036.78;;;21.78;nan
62800;BME280;48842;51.046;13.796;2022-09-09T09:12:16;100036.53;;;21.83;nan
62800;BME280;48842;51.046;13.796;2022-09-09T09:14:44;100036.53;;;21.83;nan
62800;BME280;48842;51.046;13.796;2022-09-09T09:17:14;100036.41;;;21.86;nan
62800;BME280;48842;51.046;13.796;2022-09-09T09:19:41;100037.28;;;21.86;nan
62800;BME280;48842;51.046;13.796;2022-09-09T09:22:22;100050.53;;;21.88;nan
62800;BME280;48842;51.046;13.796;2022-09-09T09:24:57;100055.00;;;21.87;nan
62800;BME280;48842;51.046;13.796;2022-09-09T09:27:44;100075.63;;;21.84;nan
62800;BME280;48842;51.046;13.796;2022-09-09T09:30:17;100081.09;;;21.81;nan
62800;BME280;48842;51.046;13.796;2022-09-09T09:32:51;100081.41;;;21.74;nan
62800;BME280;48842;51.046;13.796;2022-09-09T09:35:18;100079.94;;;21.67;nan
62800;BME280;48842;51.046;13.796;2022-09-09T09:37:43;100080.22;;;21.61;nan
62800;BME280;48842;51.046;13.796;2022-09-09T09:40:11;100068.13;;;21.54;nan
62800;BME280;48842;51.046;13.796;2022-09-09T09:42:38;100071.84;;;21.50;nan
62800;BME280;48842;51.046;13.796;2022-09-09T09:45:19;100063.25;;;21.43;nan
62800;BME280;48842;51.046;13.796;2022-09-09T09:47:46;100065.91;;;21.43;nan
62800;BME280;48842;51.046;13.796;2022-09-09T09:50:19;100071.31;;;21.41;nan
62800;BME280;48842;51.046;13.796;2022-09-09T09:52:54;100065.06;;;21.42;nan
62800;BME280;48842;51.046;13.796;2022-09-09T09:55:21;100064.22;;;21.61;nan
62800;BME280;48842;51.046;13.796;2022-09-09T09:57:47;100057.59;;;21.70;nan
62800;BME280;48842;51.046;13.796;2022-09-09T10:00:18;100055.81;;;21.70;nan
62800;BME280;48842;51.046;13.796;2022-09-09T10:02:45;100051.09;;;21.75;nan
62800;BME280;48842;51.046;13.796;2022-09-09T10:07:41;100054.88;;;21.71;nan
62800;BME280;48842;51.046;13.796;2022-09-09T10:10:15;100050.63;;;21.67;nan
62800;BME280;48842;51.046;13.796;2022-09-09T10:18:16;100043.56;;;21.66;nan
62800;BME280;48842;51.046;13.796;2022-09-09T10:24:02;100043.41;;;21.69;nan
62800;BME280;48842;51.046;13.796;2022-09-09T10:34:51;100030.88;;;21.71;nan
62800;BME280;48842;51.046;13.796;2022-09-09T10:37:41;100027.16;;;21.93;nan
62800;BME280;48842;51.046;13.796;2022-09-09T10:40:32;100026.63;;;21.86;nan
62800;BME280;48842;51.046;13.796;2022-09-09T10:43:11;100032.38;;;21.77;nan
62800;BME280;48842;51.046;13.796;2022-09-09T10:49:03;100017.94;;;21.81;nan
62800;BME280;48842;51.046;13.796;2022-09-09T10:51:53;100011.63;;;21.84;nan
62800;BME280;48842;51.046;13.796;2022-09-09T10:54:25;100008.72;;;21.88;nan
62800;BME280;48842;51.046;13.796;2022-09-09T10:56:59;100013.97;;;21.90;nan
62800;BME280;48842;51.046;13.796;2022-09-09T10:59:33;100007.56;;;21.94;nan
62800;BME280;48842;51.046;13.796;2022-09-09T11:04:41;99994.06;;;21.97;nan
62800;BME280;48842;51.046;13.796;2022-09-09T11:07:13;99997.53;;;21.99;nan
62800;BME280;48842;51.046;13.796;2022-09-09T11:09:47;100007.09;;;22.03;nan
62800;BME280;48842;51.046;13.796;2022-09-09T11:12:18;99997.16;;;22.07;nan
62800;BME280;48842;51.046;13.796;2022-09-09T11:14:49;99990.66;;;22.12;nan
62800;BME280;48842;51.046;13.796;2022-09-09T11:17:23;99992.25;;;22.17;nan
62800;BME280;48842;51.046;13.796;2022-09-09T11:19:49;99989.34;;;22.21;nan
62800;BME280;48842;51.046;13.796;2022-09-09T11:22:27;99985.59;;;22.25;nan
62800;BME280;48842;51.046;13.796;2022-09-09T11:25:40;99989.88;;;22.28;nan
62800;BME280;48842;51.046;13.796;2022-09-09T11:28:19;99995.22;;;22.28;nan
62800;BME280;48842;51.046;13.796;2022-09-09T11:38:31;99985.66;;;22.41;nan
62800;BME280;48842;51.046;13.796;2022-09-09T11:41:02;99981.66;;;22.50;nan
62800;BME280;48842;51.046;13.796;2022-09-09T11:43:33;99980.81;;;22.67;nan
62800;BME280;48842;51.046;13.796;2022-09-09T11:46:03;99977.84;;;22.89;nan
62800;BME280;48842;51.046;13.796;2022-09-09T11:48:40;99974.16;;;22.92;nan
62800;BME280;48842;51.046;13.796;2022-09-09T11:53:59;99974.06;;;22.93;nan
62800;BME280;48842;51.046;13.796;2022-09-09T11:56:31;99977.47;;;22.97;nan
62800;BME280;48842;51.046;13.796;2022-09-09T11:59:01;99966.91;;;22.94;nan
62800;BME280;48842;51.046;13.796;2022-09-09T12:01:36;99973.50;;;23.04;nan
62800;BME280;48842;51.046;13.796;2022-09-09T12:06:32;99969.44;;;23.14;nan
62800;BME280;48842;51.046;13.796;2022-09-09T12:09:32;99964.09;;;23.14;nan
62800;BME280;48842;51.046;13.796;2022-09-09T12:19:41;99942.53;;;23.17;nan
62800;BME280;48842;51.046;13.796;2022-09-09T12:22:22;99937.03;;;23.21;nan
62800;BME280;48842;51.046;13.796;2022-09-09T12:25:15;99940.63;;;23.20;nan
62800;BME280;48842;51.046;13.796;2022-09-09T12:28:00;99935.28;;;23.20;nan
62800;BME280;48842;51.046;13.796;2022-09-09T12:30:37;99943.84;;;23.26;nan
62800;BME280;48842;51.046;13.796;2022-09-09T12:33:33;99943.41;;;23.34;nan
62800;BME280;48842;51.046;13.796;2022-09-09T12:35:59;99928.84;;;23.40;nan
62800;BME280;48842;51.046;13.796;2022-09-09T12:38:40;99937.78;;;23.39;nan
62800;BME280;48842;51.046;13.796;2022-09-09T12:41:05;99934.78;;;23.45;nan
62800;BME280;48842;51.046;13.796;2022-09-09T12:43:31;99932.38;;;23.40;nan
62800;BME280;48842;51.046;13.796;2022-09-09T12:46:01;99926.47;;;23.49;nan
62800;BME280;48842;51.046;13.796;2022-09-09T12:48:35;99924.59;;;23.51;nan
62800;BME280;48842;51.046;13.796;2022-09-09T12:51:02;99936.06;;;23.53;nan
62800;BME280;48842;51.046;13.796;2022-09-09T12:53:35;99933.06;;;23.60;nan
62800;BME280;48842;51.046;13.796;2022-09-09T12:56:04;99927.34;;;23.66;nan
62800;BME280;48842;51.046;13.796;2022-09-09T12:58:31;99929.66;;;23.72;nan
62800;BME280;48842;51.046;13.796;2022-09-09T13:01:01;99924.94;;;23.77;nan
62800;BME280;48842;51.046;13.796;2022-09-09T13:03:29;99914.72;;;23.84;nan
62800;BME280;48842;51.046;13.796;2022-09-09T13:05:58;99904.44;;;24.08;nan
62800;BME280;48842;51.046;13.796;2022-09-09T13:08:25;99902.09;;;24.47;nan
62800;BME280;48842;51.046;13.796;2022-09-09T13:10:57;99907.72;;;24.72;nan
62800;BME280;48842;51.046;13.796;2022-09-09T13:13:30;99896.03;;;24.88;nan
62800;BME280;48842;51.046;13.796;2022-09-09T13:15:57;99895.72;;;24.92;nan
62800;BME280;48842;51.046;13.796;2022-09-09T13:18:29;99888.81;;;25.32;nan
62800;BME280;48842;51.046;13.796;2022-09-09T13:20:56;99882.91;;;26.21;nan
62800;BME280;48842;51.046;13.796;2022-09-09T13:23:26;99881.63;;;27.28;nan
62800;BME280;48842;51.046;13.796;2022-09-09T13:25:54;99878.19;;;28.34;nan
62800;BME280;48842;51.046;13.796;2022-09-09T13:28:23;99881.16;;;29.33;nan
62800;BME280;48842;51.046;13.796;2022-09-09T13:30:59;99873.44;;;29.61;nan
62800;BME280;48842;51.046;13.796;2022-09-09T13:33:30;99868.41;;;30.00;nan
62800;BME280;48842;51.046;13.796;2022-09-09T13:35:59;99868.13;;;30.67;nan
62800;BME280;48842;51.046;13.796;2022-09-09T13:38:28;99864.22;;;31.31;nan
62800;BME280;48842;51.046;13.796;2022-09-09T13:41:08;99866.28;;;31.68;nan
62800;BME280;48842;51.046;13.796;2022-09-09T13:43:42;99871.50;;;31.50;nan
62800;BME280;48842;51.046;13.796;2022-09-09T13:48:58;99880.56;;;30.48;nan
62800;BME280;48842;51.046;13.796;2022-09-09T13:51:34;99883.16;;;29.96;nan
62800;BME280;48842;51.046;13.796;2022-09-09T13:54:00;99882.47;;;29.50;nan
62800;BME280;48842;51.046;13.796;2022-09-09T13:56:26;99884.84;;;29.10;nan
62800;BME280;48842;51.046;13.796;2022-09-09T13:58:51;99888.53;;;28.86;nan
62800;BME280;48842;51.046;13.796;2022-09-09T14:01:17;99892.34;;;28.72;nan
62800;BME280;48842;51.046;13.796;2022-09-09T14:03:42;99891.22;;;28.52;nan
62800;BME280;48842;51.046;13.796;2022-09-09T14:06:09;99881.47;;;28.27;nan
62800;BME280;48842;51.046;13.796;2022-09-09T14:08:35;99873.69;;;27.99;nan
62800;BME280;48842;51.046;13.796;2022-09-09T14:11:03;99880.16;;;27.73;nan
62800;BME280;48842;51.046;13.796;2022-09-09T14:13:29;99879.06;;;27.51;nan
62800;BME280;48842;51.046;13.796;2022-09-09T14:15:54;99878.09;;;27.28;nan
62800;BME280;48842;51.046;13.796;2022-09-09T14:18:19;99878.78;;;27.06;nan
62800;BME280;48842;51.046;13.796;2022-09-09T14:20:44;99881.19;;;26.85;nan
62800;BME280;48842;51.046;13.796;2022-09-09T14:23:11;99871.81;;;26.64;nan
62800;BME280;48842;51.046;13.796;2022-09-09T14:25:39;99867.09;;;26.42;nan
62800;BME280;48842;51.046;13.796;2022-09-09T14:28:04;99867.22;;;26.28;nan
62800;BME280;48842;51.046;13.796;2022-09-09T14:30:30;99862.69;;;26.16;nan
62800;BME280;48842;51.046;13.796;2022-09-09T14:32:55;99854.50;;;26.04;nan
62800;BME280;48842;51.046;13.796;2022-09-09T14:35:20;99854.25;;;25.94;nan
62800;BME280;48842;51.046;13.796;2022-09-09T14:37:47;99859.28;;;25.86;nan
62800;BME280;48842;51.046;13.796;2022-09-09T14:40:13;99849.16;;;25.77;nan
62800;BME280;48842;51.046;13.796;2022-09-09T14:42:39;99849.03;;;25.66;nan
62800;BME280;48842;51.046;13.796;2022-09-09T14:45:05;99851.16;;;25.60;nan
62800;BME280;48842;51.046;13.796;2022-09-09T14:47:31;99845.06;;;25.58;nan
62800;BME280;48842;51.046;13.796;2022-09-09T14:49:56;99850.53;;;25.57;nan
62800;BME280;48842;51.046;13.796;2022-09-09T14:52:21;99863.16;;;25.55;nan